Tacoma, WA (98403)

10:45 PM PST on February 07, 2016 (GMT -0800)
APRSWXNET | | Change Station
CLOSE
Current Station
Personal Weather Station
Location: Tacoma, WA
Elevation: 275 ft
Nearby Weather Stations

Elev 275 ft 47.26 °N, 122.47 °W | Updated 21 minutes ago

Clear
Clear
43 °F
Feels Like 43 °F
N
0
Wind Variable Wind from North
Gusts 1.0 mph

Today
High -- | Low -- °F
--% Chance of Precip.
Yesterday
High -- | Low -- °F
Precip. -- in
Pressure 30.50 in
Visibility 10.0 miles
Clouds Clear
Windchill 43 °F
Dew Point 39 °F
Humidity 87%
Rainfall in
Snow Depth Not available.
7:27 AM 5:20 PM
Waning Crescent, 0% visible
METAR KTIW 080553Z AUTO 02006KT 10SM CLR 07/03 A3049 RMK AO2 SLP328 T00720033 10094 20061 56011
Pressure 30.50 in
Visibility 10.0 miles
Clouds Clear
Windchill 43 °F
Dew Point 39 °F
Humidity 87%
Rainfall in
Snow Depth Not available.
7:27 AM 5:20 PM
Waning Crescent, 0% visible
METAR KTIW 080553Z AUTO 02006KT 10SM CLR 07/03 A3049 RMK AO2 SLP328 T00720033 10094 20061 56011

10-Day Weather Forecast

Almanac

Astronomy

Feb. 07, 2016 Rise Set
Actual Time
Civil Twilight
Nautical Twilight
Astronomical Twilight
Moon
Length of Visible Light
Length of Day
Tomorrow will be .
, % of the Moon is Illuminated

Today's Extremes

State Highs State Lows

Community

WunderPhotos

Upload Photos

1,891,395 photos uploaded!

WunderBlog® & News

Nearby

Air Quality

  Air Quality AQ Index Pollutant
Not available.

Snow Depth

Station Depth Elevation

Earthquake Activity

City Distance Mag. Time & Date
Minimum magnitude displayed is 2.5.

Coastal Water Temperatures

Place Temperature

Stations

Nearby Weather Stations

Station Location Temp. Windchill Dew Point Humidity Wind Precip. Elev Updated Type
                   

Watches & Warnings

There are currently no watches in effect.